createdAt,value
2017-06-14T00:00:31.815Z,65.05
2017-06-14T00:01:28.095Z,65.19
2017-06-14T00:02:24.367Z,65.16
2017-06-14T00:03:21.606Z,65.27
2017-06-14T00:04:17.851Z,65.23
2017-06-14T00:05:15.006Z,65.28
2017-06-14T00:06:12.173Z,65.29
2017-06-14T00:07:08.443Z,65.33
2017-06-14T00:08:04.690Z,65.31
2017-06-14T00:09:00.983Z,65.56
2017-06-14T00:09:57.266Z,65.59
2017-06-14T00:10:54.423Z,65.73
2017-06-14T00:11:50.686Z,65.72
2017-06-14T00:12:46.967Z,65.77
2017-06-14T00:13:43.222Z,65.92
2017-06-14T00:14:39.483Z,66.03
2017-06-14T00:15:35.723Z,66.08
2017-06-14T00:16:31.982Z,66.05
2017-06-14T00:17:28.241Z,66.02
2017-06-14T00:18:24.499Z,66.17
2017-06-14T00:19:20.776Z,66.24
2017-06-14T00:20:17.016Z,66.25
2017-06-14T00:21:13.328Z,66.26
2017-06-14T00:22:09.607Z,66.40
2017-06-14T00:23:05.871Z,66.36
2017-06-14T00:24:02.139Z,66.48
2017-06-14T00:24:58.418Z,66.56
2017-06-14T00:25:54.672Z,66.71
2017-06-14T00:26:50.951Z,66.68
2017-06-14T00:27:47.215Z,66.71
2017-06-14T00:28:43.463Z,66.79
2017-06-14T00:29:39.748Z,66.76
2017-06-14T00:30:36.023Z,66.83
2017-06-14T00:31:32.289Z,66.79
2017-06-14T00:32:28.655Z,66.91
2017-06-14T00:33:24.947Z,66.90
2017-06-14T00:34:21.210Z,66.94
2017-06-14T00:35:17.484Z,67.07
2017-06-14T00:36:13.747Z,67.14
2017-06-14T00:37:10.055Z,67.14
2017-06-14T00:38:06.299Z,67.14
2017-06-14T00:39:02.557Z,67.13
2017-06-14T00:39:58.858Z,67.12
2017-06-14T00:40:55.131Z,67.11
2017-06-14T00:41:51.395Z,67.18
2017-06-14T00:42:47.655Z,67.16
2017-06-14T00:43:43.911Z,67.19
2017-06-14T00:44:40.178Z,67.18
2017-06-14T00:45:36.494Z,67.25
2017-06-14T00:46:32.791Z,67.29
2017-06-14T00:47:29.088Z,67.42
2017-06-14T00:48:25.330Z,67.55
2017-06-14T00:49:21.573Z,67.49
2017-06-14T00:50:17.843Z,67.56
2017-06-14T00:51:14.124Z,67.61
2017-06-14T00:52:10.370Z,67.69
2017-06-14T00:53:06.627Z,67.70
2017-06-14T00:54:02.896Z,67.62
2017-06-14T00:54:59.173Z,67.63
2017-06-14T00:55:55.426Z,67.65
2017-06-14T00:56:51.719Z,67.71
2017-06-14T00:57:47.967Z,67.83
2017-06-14T00:58:44.247Z,67.90
2017-06-14T00:59:40.506Z,67.97
2017-06-14T01:00:36.759Z,68.10
2017-06-14T01:01:33.006Z,68.01
2017-06-14T01:02:29.271Z,68.19
2017-06-14T01:03:25.530Z,68.33
2017-06-14T01:04:21.807Z,68.43
2017-06-14T01:05:18.051Z,68.40
2017-06-14T01:06:14.302Z,68.45
2017-06-14T01:07:10.555Z,68.54
2017-06-14T01:08:06.802Z,68.57
2017-06-14T01:09:03.077Z,68.64
2017-06-14T01:09:59.338Z,68.64
2017-06-14T01:10:55.580Z,68.59
2017-06-14T01:11:51.839Z,68.61
2017-06-14T01:12:48.111Z,68.59
2017-06-14T01:13:44.385Z,68.60
2017-06-14T01:14:40.666Z,68.73
2017-06-14T01:15:37.018Z,68.78
2017-06-14T01:16:33.275Z,68.92
2017-06-14T01:17:29.536Z,68.94
2017-06-14T01:18:25.778Z,69.21
2017-06-14T01:19:22.042Z,69.16
2017-06-14T01:20:18.307Z,69.15
2017-06-14T01:21:14.562Z,69.23
2017-06-14T01:22:10.802Z,69.14
2017-06-14T01:23:07.059Z,69.21
2017-06-14T01:24:03.306Z,69.19
2017-06-14T01:24:59.586Z,69.41
2017-06-14T01:25:55.841Z,69.45
2017-06-14T01:26:52.092Z,69.46
2017-06-14T01:27:48.349Z,69.60
2017-06-14T01:28:44.603Z,69.59
2017-06-14T01:29:40.850Z,69.62
2017-06-14T01:30:37.119Z,69.64
2017-06-14T01:31:33.372Z,69.65
2017-06-14T01:32:29.610Z,69.76
2017-06-14T01:33:25.856Z,69.76
2017-06-14T01:34:22.098Z,69.68
2017-06-14T01:35:18.346Z,69.84
2017-06-14T01:36:14.614Z,69.80
2017-06-14T01:37:10.875Z,69.89
2017-06-14T01:38:07.119Z,70.01
2017-06-14T01:39:03.374Z,69.92
2017-06-14T01:39:59.670Z,69.89
2017-06-14T01:40:55.982Z,69.88
2017-06-14T01:41:52.264Z,69.80
2017-06-14T01:42:48.510Z,69.89
2017-06-14T01:43:44.769Z,69.81
2017-06-14T01:44:41.034Z,69.82
2017-06-14T01:45:37.275Z,69.86
2017-06-14T01:46:33.539Z,69.84
2017-06-14T01:47:29.786Z,69.83
2017-06-14T01:48:26.022Z,69.89
2017-06-14T01:49:22.290Z,69.81
2017-06-14T01:50:18.535Z,69.94
2017-06-14T01:51:14.794Z,69.93
2017-06-14T01:52:11.054Z,69.97
2017-06-14T01:53:07.295Z,70.02
2017-06-14T01:54:03.542Z,70.14
2017-06-14T01:54:59.792Z,70.23
2017-06-14T01:55:56.041Z,70.18
2017-06-14T01:56:52.331Z,70.20
2017-06-14T01:57:48.592Z,70.16
2017-06-14T01:58:44.830Z,70.28
2017-06-14T01:59:41.082Z,70.26
2017-06-14T02:00:37.336Z,70.32
2017-06-14T02:01:33.582Z,70.41
2017-06-14T02:02:29.842Z,70.48
2017-06-14T02:03:26.082Z,70.58
2017-06-14T02:04:22.342Z,70.57
2017-06-14T02:05:18.610Z,70.61
2017-06-14T02:06:14.859Z,70.68
2017-06-14T02:07:11.106Z,70.70
2017-06-14T02:08:07.378Z,70.67
2017-06-14T02:09:03.619Z,70.62
2017-06-14T02:09:59.895Z,70.69
2017-06-14T02:10:56.482Z,70.72
2017-06-14T02:11:52.742Z,70.68
2017-06-14T02:12:49.019Z,70.71
2017-06-14T02:13:45.258Z,70.66
2017-06-14T02:14:41.503Z,70.64
2017-06-14T02:15:37.743Z,70.83
2017-06-14T02:16:33.991Z,70.86
2017-06-14T02:17:30.266Z,70.84
2017-06-14T02:18:26.522Z,70.92
2017-06-14T02:19:22.766Z,70.92
2017-06-14T02:20:19.015Z,70.88
2017-06-14T02:21:15.251Z,70.92
2017-06-14T02:22:11.503Z,70.94
2017-06-14T02:23:07.771Z,70.98
2017-06-14T02:24:04.059Z,71.06
2017-06-14T02:25:00.330Z,71.20
2017-06-14T02:25:56.586Z,71.08
2017-06-14T02:26:52.839Z,71.17
2017-06-14T02:27:49.125Z,71.05
2017-06-14T02:28:45.370Z,71.02
2017-06-14T02:29:41.610Z,71.03
2017-06-14T02:30:37.895Z,71.04
2017-06-14T02:31:34.147Z,71.09
2017-06-14T02:32:30.403Z,71.05
2017-06-14T02:33:26.663Z,71.06
2017-06-14T02:34:22.903Z,71.19
2017-06-14T02:35:19.160Z,71.08
2017-06-14T02:36:15.407Z,71.17
2017-06-14T02:37:11.655Z,71.04
2017-06-14T02:38:07.903Z,71.08
2017-06-14T02:39:04.187Z,71.13
2017-06-14T02:40:00.446Z,71.13
2017-06-14T02:40:56.695Z,70.97
2017-06-14T02:41:52.934Z,70.90
2017-06-14T02:42:49.183Z,70.90
2017-06-14T02:43:45.433Z,70.92
2017-06-14T02:44:41.710Z,70.85
2017-06-14T02:45:37.959Z,70.75
2017-06-14T02:46:34.202Z,70.76
2017-06-14T02:47:30.450Z,70.81
2017-06-14T02:48:26.702Z,70.72
2017-06-14T02:49:22.942Z,70.85
2017-06-14T02:50:19.223Z,70.82
2017-06-14T02:51:15.474Z,70.81
2017-06-14T02:52:11.715Z,70.75
2017-06-14T02:53:07.962Z,70.90
2017-06-14T02:54:04.203Z,70.86
2017-06-14T02:55:00.471Z,70.76
2017-06-14T02:55:56.711Z,70.72
2017-06-14T02:56:52.962Z,70.78
2017-06-14T02:57:49.214Z,70.82
2017-06-14T02:58:45.450Z,70.76
2017-06-14T02:59:41.690Z,70.72
2017-06-14T03:00:37.959Z,70.70
2017-06-14T03:01:34.202Z,70.75
2017-06-14T03:02:30.443Z,70.70
2017-06-14T03:03:26.694Z,70.80
2017-06-14T03:04:22.938Z,70.80
2017-06-14T03:05:19.199Z,70.81
2017-06-14T03:06:15.446Z,70.89
2017-06-14T03:07:11.686Z,70.95
2017-06-14T03:08:07.935Z,71.02
2017-06-14T03:09:04.176Z,70.96
2017-06-14T03:10:00.422Z,70.93
2017-06-14T03:10:56.687Z,70.88
2017-06-14T03:11:52.935Z,70.92
2017-06-14T03:12:49.175Z,70.90
2017-06-14T03:13:45.426Z,70.93
2017-06-14T03:14:41.679Z,70.85
2017-06-14T03:15:37.915Z,70.81
2017-06-14T03:16:34.192Z,70.86
2017-06-14T03:17:30.441Z,70.98
2017-06-14T03:18:26.690Z,71.15
2017-06-14T03:19:22.935Z,71.33
2017-06-14T03:20:19.188Z,71.57
2017-06-14T03:21:20.139Z,71.72
2017-06-14T03:22:16.418Z,71.79
2017-06-14T03:23:12.718Z,71.94
2017-06-14T03:24:08.983Z,72.01
2017-06-14T03:25:05.251Z,72.18
2017-06-14T03:26:01.510Z,72.29
2017-06-14T03:26:57.818Z,72.39
2017-06-14T03:27:54.083Z,72.45
2017-06-14T03:28:50.383Z,72.67
2017-06-14T03:29:46.691Z,72.75
2017-06-14T03:30:42.964Z,72.84
2017-06-14T03:31:39.418Z,72.90
2017-06-14T03:32:35.727Z,72.93
2017-06-14T03:33:32.023Z,72.99
2017-06-14T03:34:28.319Z,73.08
2017-06-14T03:35:25.055Z,73.14
2017-06-14T03:36:21.347Z,73.15
2017-06-14T03:37:17.666Z,73.20
2017-06-14T03:38:13.964Z,73.29
2017-06-14T03:39:10.270Z,73.33
2017-06-14T03:40:06.563Z,73.36
2017-06-14T03:41:02.862Z,73.41
2017-06-14T03:41:59.144Z,73.47
2017-06-14T03:42:55.459Z,73.54
2017-06-14T03:43:51.743Z,73.67
2017-06-14T03:44:48.027Z,73.73
2017-06-14T03:45:44.455Z,73.79
2017-06-14T03:46:40.790Z,73.87
2017-06-14T03:47:37.281Z,73.95
2017-06-14T03:48:33.719Z,73.98
2017-06-14T03:49:30.024Z,74.05
2017-06-14T03:50:26.332Z,74.07
2017-06-14T03:51:22.670Z,74.13
2017-06-14T03:52:19.004Z,74.18
2017-06-14T03:53:16.419Z,74.28
2017-06-14T03:54:12.729Z,74.36
2017-06-14T03:55:09.193Z,74.41
2017-06-14T03:56:05.475Z,74.47
2017-06-14T03:57:01.795Z,74.53
2017-06-14T03:57:58.107Z,74.57
2017-06-14T03:58:55.499Z,74.60
2017-06-14T03:59:51.887Z,74.66
2017-06-14T04:00:48.345Z,74.72
2017-06-14T04:01:44.863Z,74.73
2017-06-14T04:02:41.143Z,74.84
2017-06-14T04:03:37.448Z,74.82
2017-06-14T04:04:33.743Z,74.87
2017-06-14T04:05:30.014Z,74.88
2017-06-14T04:06:26.407Z,74.91
2017-06-14T04:07:22.956Z,74.93
2017-06-14T04:08:19.560Z,74.97
2017-06-14T04:09:16.091Z,75.02
2017-06-14T04:10:12.373Z,75.06
2017-06-14T04:11:08.651Z,75.13
2017-06-14T04:12:04.982Z,75.11
2017-06-14T04:13:01.255Z,75.17
2017-06-14T04:13:57.529Z,75.25
2017-06-14T04:14:53.804Z,75.32
2017-06-14T04:15:50.134Z,75.39
2017-06-14T04:16:46.414Z,75.42
2017-06-14T04:17:42.697Z,75.44
2017-06-14T04:18:38.998Z,75.47
2017-06-14T04:19:35.275Z,75.51
2017-06-14T04:20:31.539Z,75.55
2017-06-14T04:21:27.795Z,75.55
2017-06-14T04:22:24.035Z,75.56
2017-06-14T04:23:20.287Z,75.58
2017-06-14T04:24:16.530Z,75.64
2017-06-14T04:25:12.795Z,75.65
2017-06-14T04:26:09.114Z,75.69
2017-06-14T04:27:05.422Z,75.72
2017-06-14T04:28:01.823Z,75.71
2017-06-14T04:28:58.175Z,75.71
2017-06-14T04:29:54.468Z,75.71
2017-06-14T04:30:50.788Z,75.72
2017-06-14T04:31:47.176Z,75.78
2017-06-14T04:32:43.540Z,75.84
2017-06-14T04:33:39.863Z,75.86
2017-06-14T04:34:36.169Z,75.89
2017-06-14T04:35:32.464Z,75.99
2017-06-14T04:36:28.798Z,75.98
2017-06-14T04:37:25.075Z,75.95
2017-06-14T04:38:21.359Z,75.98
2017-06-14T04:39:17.614Z,76.02
2017-06-14T04:40:13.854Z,75.96
2017-06-14T04:41:10.115Z,75.94
2017-06-14T04:42:06.404Z,75.92
2017-06-14T04:43:02.694Z,75.99
2017-06-14T04:43:58.946Z,75.92
2017-06-14T04:44:55.199Z,75.94
2017-06-14T04:45:51.462Z,75.95
2017-06-14T04:46:47.725Z,75.92
2017-06-14T04:47:43.987Z,75.91
2017-06-14T04:48:40.242Z,75.84
2017-06-14T04:49:36.511Z,75.77
2017-06-14T04:50:32.744Z,75.71
2017-06-14T04:51:29.011Z,75.69
2017-06-14T04:52:25.276Z,75.67
2017-06-14T04:53:21.575Z,75.62
2017-06-14T04:54:17.826Z,75.59
2017-06-14T04:55:14.068Z,75.54
2017-06-14T04:56:10.320Z,75.46
2017-06-14T04:57:06.595Z,75.39
2017-06-14T04:58:02.882Z,75.36
2017-06-14T04:58:59.166Z,75.33
2017-06-14T04:59:55.424Z,75.36
2017-06-14T05:00:51.690Z,75.39
2017-06-14T05:01:47.944Z,75.36
2017-06-14T05:02:44.218Z,75.30
2017-06-14T05:03:40.482Z,75.28
2017-06-14T05:04:36.738Z,75.28
2017-06-14T05:05:32.987Z,75.25
2017-06-14T05:06:29.243Z,75.19
2017-06-14T05:07:25.491Z,75.21
2017-06-14T05:08:21.771Z,75.26
2017-06-14T05:09:18.038Z,75.29
2017-06-14T05:10:14.278Z,75.29
2017-06-14T05:11:10.535Z,75.31
2017-06-14T05:12:06.775Z,75.23
2017-06-14T05:13:03.036Z,75.23
2017-06-14T05:13:59.311Z,75.27
2017-06-14T05:14:55.610Z,75.23
2017-06-14T05:15:51.943Z,75.27
2017-06-14T05:16:48.190Z,75.21
2017-06-14T05:17:44.446Z,75.19
2017-06-14T05:18:40.717Z,75.17
2017-06-14T05:19:37.018Z,75.13
2017-06-14T05:20:33.267Z,75.08
2017-06-14T05:21:29.514Z,75.08
2017-06-14T05:22:25.759Z,75.07
2017-06-14T05:23:22.034Z,75.06
2017-06-14T05:24:18.310Z,74.99
2017-06-14T05:25:14.556Z,74.95
2017-06-14T05:26:10.826Z,74.98
2017-06-14T05:27:07.083Z,74.93
2017-06-14T05:28:03.338Z,74.85
2017-06-14T05:28:59.634Z,74.85
2017-06-14T05:29:55.952Z,74.77
2017-06-14T05:30:52.199Z,74.67
2017-06-14T05:31:48.442Z,74.65
2017-06-14T05:32:44.679Z,74.67
2017-06-14T05:33:40.960Z,74.58
2017-06-14T05:34:37.239Z,74.49
2017-06-14T05:35:33.514Z,74.42
2017-06-14T05:36:30.028Z,74.36
2017-06-14T05:37:28.487Z,74.31
2017-06-14T05:38:24.773Z,74.30
2017-06-14T05:39:21.026Z,74.14
2017-06-14T05:40:17.288Z,74.06
2017-06-14T05:41:13.534Z,73.95
2017-06-14T05:42:09.806Z,73.86
2017-06-14T05:43:06.059Z,73.81
2017-06-14T05:44:02.443Z,73.72
2017-06-14T05:44:58.706Z,73.61
2017-06-14T05:45:54.982Z,73.49
2017-06-14T05:46:51.239Z,73.36
2017-06-14T05:47:47.491Z,73.25
2017-06-14T05:48:43.742Z,73.14
2017-06-14T05:49:39.983Z,73.03
2017-06-14T05:50:36.266Z,72.98
2017-06-14T05:51:32.532Z,72.91
2017-06-14T05:52:28.794Z,72.88
2017-06-14T05:53:25.172Z,72.84
2017-06-14T05:54:21.430Z,72.77
2017-06-14T05:55:17.699Z,72.69
2017-06-14T05:56:13.994Z,72.63
2017-06-14T05:57:10.254Z,72.58
2017-06-14T05:58:06.511Z,72.49
2017-06-14T05:59:02.775Z,72.45
2017-06-14T05:59:59.027Z,72.32
2017-06-14T06:00:55.302Z,72.25
2017-06-14T06:01:51.611Z,72.22
2017-06-14T06:02:47.868Z,72.19
2017-06-14T06:03:44.119Z,72.10
2017-06-14T06:04:40.394Z,72.01
2017-06-14T06:05:36.663Z,71.97
2017-06-14T06:06:32.927Z,71.93
2017-06-14T06:07:29.187Z,71.85
2017-06-14T06:08:25.478Z,71.80
2017-06-14T06:09:21.734Z,71.80
2017-06-14T06:10:17.976Z,71.75
2017-06-14T06:11:14.234Z,71.64
2017-06-14T06:12:10.545Z,71.57
2017-06-14T06:13:06.797Z,71.54
2017-06-14T06:14:03.043Z,71.50
2017-06-14T06:14:59.290Z,71.43
2017-06-14T06:15:55.536Z,71.34
2017-06-14T06:16:51.789Z,71.32
2017-06-14T06:17:48.074Z,71.24
2017-06-14T06:18:44.315Z,71.14
2017-06-14T06:19:40.582Z,71.07
2017-06-14T06:20:36.847Z,71.01
2017-06-14T06:21:33.103Z,70.95
2017-06-14T06:22:29.367Z,70.85
2017-06-14T06:23:25.627Z,70.78
2017-06-14T06:24:21.893Z,70.72
2017-06-14T06:25:18.147Z,70.68
2017-06-14T06:26:14.395Z,70.62
2017-06-14T06:27:10.671Z,70.61
2017-06-14T06:28:06.930Z,70.55
2017-06-14T06:29:03.198Z,70.47
2017-06-14T06:29:59.446Z,70.41
2017-06-14T06:30:55.690Z,70.34
2017-06-14T06:31:51.947Z,70.26
2017-06-14T06:32:48.210Z,70.19
2017-06-14T06:33:44.484Z,70.09
2017-06-14T06:34:40.739Z,70.00
2017-06-14T06:35:36.995Z,69.94
2017-06-14T06:36:33.242Z,69.85
2017-06-14T06:37:29.498Z,69.69
2017-06-14T06:38:25.770Z,69.61
2017-06-14T06:39:22.023Z,69.42
2017-06-14T06:40:18.278Z,69.18
2017-06-14T06:41:14.655Z,69.03
2017-06-14T06:42:10.931Z,68.81
2017-06-14T06:43:07.207Z,68.69
2017-06-14T06:44:03.478Z,68.56
2017-06-14T06:44:59.735Z,68.47
2017-06-14T06:45:56.022Z,68.43
2017-06-14T06:46:52.283Z,68.35
2017-06-14T06:47:48.542Z,68.20
2017-06-14T06:48:44.818Z,68.11
2017-06-14T06:49:41.082Z,68.08
2017-06-14T06:50:37.347Z,68.11
2017-06-14T06:51:33.609Z,68.11
2017-06-14T06:52:29.878Z,68.01
2017-06-14T06:53:26.131Z,67.91
2017-06-14T06:54:22.396Z,67.78
2017-06-14T06:55:18.675Z,67.73
2017-06-14T06:56:14.923Z,67.70
2017-06-14T06:57:11.188Z,67.64
2017-06-14T06:58:07.434Z,67.65
2017-06-14T06:59:03.710Z,67.63
2017-06-14T06:59:59.992Z,67.59
2017-06-14T07:00:56.275Z,67.56
2017-06-14T07:01:52.530Z,67.47
2017-06-14T07:02:48.786Z,67.39
2017-06-14T07:03:45.050Z,67.34
2017-06-14T07:04:41.414Z,67.28
2017-06-14T07:05:37.693Z,67.20
2017-06-14T07:06:33.987Z,67.12
2017-06-14T07:07:30.235Z,67.09
2017-06-14T07:08:26.491Z,66.99
2017-06-14T07:09:22.764Z,66.93
2017-06-14T07:10:19.026Z,66.85
2017-06-14T07:11:15.287Z,66.78
2017-06-14T07:12:11.542Z,66.74
2017-06-14T07:13:07.806Z,66.70
2017-06-14T07:14:04.083Z,66.60
2017-06-14T07:15:00.343Z,66.54
2017-06-14T07:15:56.618Z,66.46
2017-06-14T07:16:52.903Z,66.38
2017-06-14T07:17:49.218Z,66.21
2017-06-14T07:18:45.535Z,66.14
2017-06-14T07:19:41.790Z,66.06
2017-06-14T07:20:38.388Z,66.04
2017-06-14T07:21:34.651Z,66.04
2017-06-14T07:22:30.930Z,66.06
2017-06-14T07:23:27.191Z,66.05
2017-06-14T07:24:23.483Z,65.98
2017-06-14T07:25:19.734Z,65.97
2017-06-14T07:26:15.986Z,65.94
2017-06-14T07:27:12.323Z,65.88
2017-06-14T07:28:08.591Z,65.84
2017-06-14T07:29:04.845Z,65.77
2017-06-14T07:30:01.090Z,65.71
2017-06-14T07:30:57.410Z,65.68
2017-06-14T07:31:53.671Z,65.60
2017-06-14T07:32:49.939Z,65.53
2017-06-14T07:33:46.183Z,65.37
2017-06-14T07:34:42.471Z,65.35
2017-06-14T07:35:38.723Z,65.30
2017-06-14T07:36:34.988Z,65.22
2017-06-14T07:37:31.243Z,65.07
2017-06-14T07:38:27.517Z,64.93
2017-06-14T07:39:23.775Z,64.89
2017-06-14T07:40:20.037Z,64.85
2017-06-14T07:41:16.307Z,64.81
2017-06-14T07:42:12.558Z,64.78
2017-06-14T07:43:08.845Z,64.79
2017-06-14T07:44:05.096Z,64.87
2017-06-14T07:45:01.351Z,64.92
2017-06-14T07:45:57.602Z,64.84
2017-06-14T07:46:53.863Z,64.76
2017-06-14T07:47:50.125Z,64.64
2017-06-14T07:48:46.391Z,64.58
2017-06-14T07:49:42.642Z,64.43
2017-06-14T07:50:38.914Z,64.28
2017-06-14T07:51:35.171Z,64.23
2017-06-14T07:52:31.420Z,64.16
2017-06-14T07:53:27.702Z,64.16
2017-06-14T07:54:23.947Z,64.14
2017-06-14T07:55:20.199Z,64.07
2017-06-14T07:56:16.454Z,63.96
2017-06-14T07:57:12.724Z,63.89
2017-06-14T07:58:08.971Z,63.88
2017-06-14T07:59:05.235Z,63.78
2017-06-14T08:00:01.487Z,63.55
2017-06-14T08:00:57.754Z,63.41
2017-06-14T08:01:54.019Z,63.31
2017-06-14T08:02:50.267Z,63.21
2017-06-14T08:03:46.526Z,63.25
2017-06-14T08:04:42.811Z,63.34
2017-06-14T08:05:39.075Z,63.33
2017-06-14T08:06:35.335Z,63.17
2017-06-14T08:07:31.601Z,63.02
2017-06-14T08:08:27.859Z,62.98
2017-06-14T08:09:24.123Z,63.06
2017-06-14T08:10:20.367Z,63.05
2017-06-14T08:11:16.631Z,62.93
2017-06-14T08:12:12.891Z,62.83
2017-06-14T08:13:09.150Z,62.92
2017-06-14T08:14:05.415Z,62.80
2017-06-14T08:15:01.682Z,62.54
2017-06-14T08:15:57.934Z,62.34
2017-06-14T08:16:54.182Z,62.21
2017-06-14T08:17:50.447Z,62.17
2017-06-14T08:18:46.706Z,62.17
2017-06-14T08:19:43.887Z,62.08
2017-06-14T08:20:40.139Z,61.86
2017-06-14T08:21:36.398Z,61.64
2017-06-14T08:22:32.659Z,61.37
2017-06-14T08:23:28.907Z,61.31
2017-06-14T08:24:25.178Z,61.18
2017-06-14T08:25:21.458Z,61.11
2017-06-14T08:26:17.714Z,60.98
2017-06-14T08:27:13.955Z,60.79
2017-06-14T08:28:10.210Z,60.55
2017-06-14T08:29:06.475Z,60.40
2017-06-14T08:30:02.770Z,60.16
2017-06-14T08:30:59.047Z,60.01
2017-06-14T08:31:55.290Z,59.84
2017-06-14T08:32:51.546Z,59.65
2017-06-14T08:33:47.795Z,59.43
2017-06-14T08:34:44.043Z,58.96
2017-06-14T08:35:40.346Z,58.95
2017-06-14T08:36:36.587Z,58.71
2017-06-14T08:37:32.855Z,58.63
2017-06-14T08:38:29.102Z,58.54
2017-06-14T08:39:25.363Z,58.58
2017-06-14T08:40:21.634Z,58.46
2017-06-14T08:41:17.898Z,58.22
2017-06-14T08:42:14.167Z,58.09
2017-06-14T08:43:10.443Z,58.05
2017-06-14T08:44:06.690Z,58.09
2017-06-14T08:45:02.948Z,58.17
2017-06-14T08:45:59.198Z,58.18
2017-06-14T08:46:55.471Z,58.14
2017-06-14T08:47:51.745Z,58.13
2017-06-14T08:48:47.998Z,57.89
2017-06-14T08:49:44.263Z,57.80
2017-06-14T08:50:40.524Z,57.62
2017-06-14T08:51:36.818Z,57.37
2017-06-14T08:52:33.075Z,57.02
2017-06-14T08:53:29.347Z,56.95
2017-06-14T08:54:25.611Z,56.87
2017-06-14T08:55:21.872Z,56.61
2017-06-14T08:56:18.115Z,56.73
2017-06-14T08:57:14.374Z,56.60
2017-06-14T08:58:10.658Z,56.47
2017-06-14T08:59:06.939Z,56.46
2017-06-14T09:00:03.281Z,56.47
2017-06-14T09:00:59.547Z,56.30
2017-06-14T09:01:55.839Z,56.14
2017-06-14T09:02:52.114Z,56.15
2017-06-14T09:03:48.373Z,56.20
2017-06-14T09:04:44.647Z,56.15
2017-06-14T09:05:40.903Z,55.87
2017-06-14T09:06:37.238Z,55.64
2017-06-14T09:07:33.527Z,55.59
2017-06-14T09:08:29.788Z,55.73
2017-06-14T09:09:26.061Z,55.15
2017-06-14T09:10:22.344Z,54.40
2017-06-14T09:11:18.598Z,53.88
2017-06-14T09:12:14.850Z,53.41
2017-06-14T09:13:11.123Z,52.89
2017-06-14T09:14:07.420Z,52.43
2017-06-14T09:15:03.699Z,52.34
2017-06-14T09:15:59.957Z,51.88
2017-06-14T09:16:56.219Z,51.42
2017-06-14T09:17:52.490Z,50.76
2017-06-14T09:18:48.739Z,50.54
2017-06-14T09:19:44.983Z,50.17
2017-06-14T09:20:41.242Z,49.66
2017-06-14T09:21:37.487Z,49.50
2017-06-14T09:22:33.738Z,49.06
2017-06-14T09:23:30.003Z,48.48
2017-06-14T09:24:26.263Z,47.54
2017-06-14T09:25:22.521Z,47.16
2017-06-14T09:26:18.779Z,47.66
2017-06-14T09:27:15.023Z,47.81
2017-06-14T09:28:11.286Z,47.58
2017-06-14T09:29:07.553Z,47.44
2017-06-14T09:30:03.809Z,47.04
2017-06-14T09:31:00.109Z,46.82
2017-06-14T09:31:56.354Z,46.40
2017-06-14T09:32:52.611Z,45.97
2017-06-14T09:33:48.879Z,44.93
2017-06-14T09:34:45.131Z,44.37
2017-06-14T09:35:41.387Z,44.04
2017-06-14T09:36:37.655Z,43.86
2017-06-14T09:37:33.927Z,43.57
2017-06-14T09:38:30.190Z,43.16
2017-06-14T09:39:26.471Z,42.11
2017-06-14T09:40:22.718Z,41.98
2017-06-14T09:41:18.981Z,41.89
2017-06-14T09:42:15.233Z,41.53
2017-06-14T09:43:11.495Z,41.31
2017-06-14T09:44:07.759Z,40.95
2017-06-14T09:45:04.034Z,40.34
2017-06-14T09:46:00.290Z,39.94
2017-06-14T09:46:56.550Z,40.04
2017-06-14T09:47:52.794Z,40.16
2017-06-14T09:48:49.058Z,39.96
2017-06-14T09:49:45.307Z,39.59
2017-06-14T09:50:41.563Z,39.81
2017-06-14T09:51:37.814Z,39.78
2017-06-14T09:52:34.063Z,39.72
2017-06-14T09:53:30.327Z,39.43
2017-06-14T09:54:26.583Z,39.00
2017-06-14T09:55:22.838Z,38.72
2017-06-14T09:56:19.138Z,38.58
2017-06-14T09:57:15.387Z,38.36
2017-06-14T09:58:11.690Z,37.90
2017-06-14T09:59:07.954Z,37.26
2017-06-14T10:00:04.195Z,37.07
2017-06-14T10:01:00.725Z,37.00
2017-06-14T10:01:56.982Z,37.29
2017-06-14T10:02:53.232Z,37.42
2017-06-14T10:03:49.484Z,37.74
2017-06-14T10:04:45.734Z,37.81
2017-06-14T10:05:42.011Z,37.78
2017-06-14T10:06:38.239Z,37.53
2017-06-14T10:07:34.486Z,37.16
2017-06-14T10:08:30.799Z,36.57
2017-06-14T10:09:27.075Z,36.48
2017-06-14T10:10:23.323Z,36.26
2017-06-14T10:11:19.583Z,36.46
2017-06-14T10:12:15.830Z,36.09
2017-06-14T10:13:12.076Z,36.16
2017-06-14T10:14:08.322Z,36.11
2017-06-14T10:15:04.586Z,35.83
2017-06-14T10:16:00.855Z,35.45
2017-06-14T10:16:57.115Z,35.39
2017-06-14T10:17:53.374Z,35.50
2017-06-14T10:18:49.614Z,35.51
2017-06-14T10:19:45.855Z,35.29
2017-06-14T10:20:42.107Z,35.09
2017-06-14T10:21:38.375Z,34.94
2017-06-14T10:22:34.669Z,34.40
2017-06-14T10:23:30.907Z,34.08
2017-06-14T10:24:27.375Z,34.04
2017-06-14T10:25:23.639Z,34.16
2017-06-14T10:26:19.908Z,34.41
2017-06-14T10:27:16.187Z,34.66
2017-06-14T10:28:12.430Z,34.70
2017-06-14T10:29:08.671Z,34.64
2017-06-14T10:30:04.926Z,34.83
2017-06-14T10:31:01.171Z,35.03
2017-06-14T10:31:57.427Z,35.45
2017-06-14T10:32:53.703Z,35.55
2017-06-14T10:33:49.964Z,35.73
2017-06-14T10:34:46.207Z,35.59
2017-06-14T10:35:42.450Z,35.43
2017-06-14T10:36:38.690Z,35.22
2017-06-14T10:37:34.962Z,35.28
2017-06-14T10:38:31.211Z,35.38
2017-06-14T10:39:27.487Z,35.17
2017-06-14T10:40:23.723Z,35.13
2017-06-14T10:41:19.958Z,35.08
2017-06-14T10:42:16.219Z,35.28
2017-06-14T10:43:12.498Z,35.41
2017-06-14T10:44:08.739Z,35.26
2017-06-14T10:45:04.995Z,35.17
2017-06-14T10:46:01.251Z,35.44
2017-06-14T10:46:57.491Z,35.58
2017-06-14T10:47:53.745Z,35.59
2017-06-14T10:48:50.034Z,35.67
2017-06-14T10:49:46.274Z,35.56
2017-06-14T10:50:42.527Z,35.48
2017-06-14T10:51:38.771Z,35.24
2017-06-14T10:52:35.034Z,35.11
2017-06-14T10:53:31.279Z,34.59
2017-06-14T10:54:27.547Z,34.61
2017-06-14T10:55:23.799Z,34.75
2017-06-14T10:56:20.038Z,35.04
2017-06-14T10:57:16.279Z,35.03
2017-06-14T10:58:12.522Z,35.00
2017-06-14T10:59:08.767Z,34.67
2017-06-14T11:00:05.043Z,34.79
2017-06-14T11:01:01.279Z,34.78
2017-06-14T11:01:57.539Z,34.66
2017-06-14T11:02:53.792Z,34.74
2017-06-14T11:03:50.063Z,34.81
2017-06-14T11:04:46.331Z,34.85
2017-06-14T11:05:42.586Z,34.81
2017-06-14T11:06:38.838Z,34.86
2017-06-14T11:07:35.091Z,35.08
2017-06-14T11:08:31.354Z,35.54
2017-06-14T11:09:27.599Z,35.72
2017-06-14T11:10:23.874Z,35.70
2017-06-14T11:11:20.135Z,35.41
2017-06-14T11:12:16.395Z,35.19
2017-06-14T11:13:12.673Z,34.66
2017-06-14T11:14:08.919Z,34.53
2017-06-14T11:15:05.200Z,34.78
2017-06-14T11:16:01.478Z,34.70
2017-06-14T11:16:57.726Z,34.84
2017-06-14T11:17:53.987Z,34.81
2017-06-14T11:18:50.244Z,35.00
2017-06-14T11:19:46.496Z,35.06
2017-06-14T11:20:42.747Z,35.18
2017-06-14T11:21:39.023Z,35.14
2017-06-14T11:22:35.283Z,35.18
2017-06-14T11:23:31.528Z,35.16
2017-06-14T11:24:27.767Z,35.18
2017-06-14T11:25:24.035Z,35.07
2017-06-14T11:26:20.298Z,34.98
2017-06-14T11:27:16.550Z,34.98
2017-06-14T11:28:12.798Z,35.07
2017-06-14T11:29:09.031Z,35.15
2017-06-14T11:30:05.286Z,35.03
2017-06-14T11:31:01.537Z,35.00
2017-06-14T11:31:57.806Z,34.88
2017-06-14T11:32:54.059Z,34.70
2017-06-14T11:33:50.310Z,34.27
2017-06-14T11:34:46.618Z,34.39
2017-06-14T11:35:42.858Z,34.71
2017-06-14T11:36:39.115Z,35.02
2017-06-14T11:37:35.358Z,35.07
2017-06-14T11:38:31.603Z,35.07
2017-06-14T11:39:27.871Z,34.89
2017-06-14T11:40:24.133Z,34.70
2017-06-14T11:41:20.375Z,34.43
2017-06-14T11:42:16.635Z,34.40
2017-06-14T11:43:12.882Z,34.48
2017-06-14T11:44:09.131Z,34.46
2017-06-14T11:45:05.395Z,34.42
2017-06-14T11:46:01.650Z,34.49
2017-06-14T11:46:57.911Z,34.45
2017-06-14T11:47:54.155Z,34.46
2017-06-14T11:48:50.405Z,34.18
2017-06-14T11:49:46.643Z,34.26
2017-06-14T11:50:42.888Z,34.39
2017-06-14T11:51:39.150Z,34.28
2017-06-14T11:52:35.550Z,34.40
2017-06-14T11:53:31.794Z,34.26
2017-06-14T11:54:28.035Z,34.26
2017-06-14T11:55:24.290Z,34.25
2017-06-14T11:56:20.547Z,34.34
2017-06-14T11:57:16.850Z,34.33
2017-06-14T11:58:13.086Z,34.22
2017-06-14T11:59:09.334Z,34.11
2017-06-14T12:00:05.583Z,33.84
2017-06-14T12:01:01.843Z,33.65
2017-06-14T12:01:58.091Z,33.52
2017-06-14T12:02:54.342Z,33.74
2017-06-14T12:03:50.583Z,33.81
2017-06-14T12:04:46.898Z,34.10